createdAt,value
2018-02-21T00:00:36.044Z,0.00
2018-02-21T00:01:36.007Z,0.00
2018-02-21T00:02:36.011Z,0.00
2018-02-21T00:03:35.955Z,0.00
2018-02-21T00:04:35.927Z,0.00
2018-02-21T00:05:35.900Z,0.00
2018-02-21T00:06:35.868Z,0.00
2018-02-21T00:07:35.843Z,0.00
2018-02-21T00:08:35.813Z,0.00
2018-02-21T00:09:35.786Z,0.00
2018-02-21T00:10:35.758Z,0.00
2018-02-21T00:11:35.731Z,0.00
2018-02-21T00:12:35.704Z,0.00
2018-02-21T00:13:35.677Z,0.00
2018-02-21T00:14:35.648Z,0.00
2018-02-21T00:15:35.623Z,0.00
2018-02-21T00:16:35.592Z,0.00
2018-02-21T00:17:35.567Z,0.00
2018-02-21T00:18:35.538Z,0.00
2018-02-21T00:19:35.515Z,0.00
2018-02-21T00:20:35.484Z,0.00
2018-02-21T00:21:35.453Z,0.00
2018-02-21T00:22:35.471Z,0.00
2018-02-21T00:23:35.401Z,0.00
2018-02-21T00:24:35.370Z,0.00
2018-02-21T00:25:35.343Z,0.00
2018-02-21T00:26:35.331Z,0.00
2018-02-21T00:27:35.287Z,0.00
2018-02-21T00:28:35.262Z,0.00
2018-02-21T00:29:35.237Z,0.00
2018-02-21T00:30:35.205Z,0.00
2018-02-21T00:31:35.185Z,0.00
2018-02-21T00:32:35.161Z,0.00
2018-02-21T00:33:35.121Z,0.00
2018-02-21T00:34:35.098Z,0.00
2018-02-21T00:35:35.115Z,0.00
2018-02-21T00:36:35.038Z,0.00
2018-02-21T00:37:35.011Z,0.00
2018-02-21T00:38:34.984Z,0.00
2018-02-21T00:39:34.953Z,0.00
2018-02-21T00:40:34.928Z,0.00
2018-02-21T00:41:34.903Z,0.00
2018-02-21T00:42:34.872Z,0.00
2018-02-21T00:43:34.846Z,0.00
2018-02-21T00:44:34.816Z,0.00
2018-02-21T00:45:34.789Z,0.00
2018-02-21T00:46:34.766Z,0.00
2018-02-21T00:47:34.734Z,0.00
2018-02-21T00:48:34.710Z,0.00
2018-02-21T00:49:34.681Z,0.00
2018-02-21T00:50:34.654Z,0.00
2018-02-21T00:51:34.623Z,0.00
2018-02-21T00:52:34.595Z,0.00
2018-02-21T00:53:34.566Z,0.00
2018-02-21T00:54:34.537Z,0.00
2018-02-21T00:55:34.514Z,0.00
2018-02-21T00:56:34.506Z,0.00
2018-02-21T00:57:34.454Z,0.00
2018-02-21T00:58:34.438Z,0.00
2018-02-21T00:59:34.405Z,0.00
2018-02-21T01:00:34.376Z,0.00
2018-02-21T01:01:34.361Z,0.00
2018-02-21T01:02:34.334Z,0.00
2018-02-21T01:03:34.298Z,0.00
2018-02-21T01:04:34.278Z,0.00
2018-02-21T01:05:34.245Z,0.00
2018-02-21T01:06:34.227Z,0.00
2018-02-21T01:07:34.210Z,0.00
2018-02-21T01:08:34.149Z,0.00
2018-02-21T01:09:34.133Z,0.00
2018-02-21T01:10:34.098Z,0.00
2018-02-21T01:11:34.065Z,0.00
2018-02-21T01:12:34.042Z,0.00
2018-02-21T01:13:34.014Z,0.00
2018-02-21T01:14:33.983Z,0.00
2018-02-21T01:15:33.961Z,0.00
2018-02-21T01:16:33.925Z,0.00
2018-02-21T01:17:33.922Z,0.00
2018-02-21T01:18:33.878Z,0.00
2018-02-21T01:19:33.845Z,0.00
2018-02-21T01:20:33.815Z,0.00
2018-02-21T01:21:33.790Z,0.00
2018-02-21T01:22:33.761Z,0.00
2018-02-21T01:23:33.734Z,0.00
2018-02-21T01:24:33.703Z,0.00
2018-02-21T01:25:33.679Z,0.00
2018-02-21T01:26:33.649Z,0.00
2018-02-21T01:27:33.620Z,0.00
2018-02-21T01:28:33.597Z,0.00
2018-02-21T01:29:33.563Z,0.00
2018-02-21T01:30:33.536Z,0.00
2018-02-21T01:31:33.508Z,0.00
2018-02-21T01:32:33.483Z,0.00
2018-02-21T01:33:33.455Z,0.00
2018-02-21T01:34:33.429Z,0.00
2018-02-21T01:35:33.396Z,0.00
2018-02-21T01:36:33.373Z,0.00
2018-02-21T01:37:33.351Z,0.00
2018-02-21T01:38:33.319Z,0.00
2018-02-21T01:39:33.284Z,0.00
2018-02-21T01:40:33.293Z,0.00
2018-02-21T01:41:33.228Z,0.00
2018-02-21T01:42:33.201Z,0.00
2018-02-21T01:43:33.180Z,0.00
2018-02-21T01:44:33.148Z,0.00
2018-02-21T01:45:33.123Z,0.00
2018-02-21T01:46:33.095Z,0.00
2018-02-21T01:47:33.066Z,0.00
2018-02-21T01:48:33.032Z,0.00
2018-02-21T01:49:33.012Z,0.00
2018-02-21T01:50:32.988Z,0.00
2018-02-21T01:51:32.954Z,0.00
2018-02-21T01:52:32.921Z,0.00
2018-02-21T01:53:32.904Z,0.00
2018-02-21T01:54:32.869Z,0.00
2018-02-21T01:55:32.836Z,0.00
2018-02-21T01:56:32.807Z,0.00
2018-02-21T01:57:32.782Z,0.00
2018-02-21T01:58:32.755Z,0.00
2018-02-21T01:59:32.724Z,0.00
2018-02-21T02:00:32.697Z,0.00
2018-02-21T02:01:32.673Z,0.00
2018-02-21T02:02:32.641Z,0.00
2018-02-21T02:03:32.618Z,0.00
2018-02-21T02:04:32.584Z,0.00
2018-02-21T02:05:32.557Z,0.00
2018-02-21T02:06:32.537Z,0.00
2018-02-21T02:07:32.500Z,0.00
2018-02-21T02:08:32.473Z,0.00
2018-02-21T02:09:32.452Z,0.00
2018-02-21T02:10:32.457Z,0.00
2018-02-21T02:11:32.421Z,0.00
2018-02-21T02:12:32.367Z,0.00
2018-02-21T02:13:32.334Z,0.00
2018-02-21T02:14:32.310Z,0.00
2018-02-21T02:15:32.276Z,0.00
2018-02-21T02:16:32.255Z,0.00
2018-02-21T02:17:32.229Z,0.00
2018-02-21T02:18:32.195Z,0.00
2018-02-21T02:19:32.171Z,0.00
2018-02-21T02:20:32.134Z,0.00
2018-02-21T02:21:32.108Z,0.00
2018-02-21T02:22:32.079Z,0.00
2018-02-21T02:23:32.052Z,0.00
2018-02-21T02:24:32.026Z,0.00
2018-02-21T02:25:31.994Z,0.00
2018-02-21T02:26:31.967Z,0.00
2018-02-21T02:27:31.936Z,0.00
2018-02-21T02:28:31.917Z,0.00
2018-02-21T02:29:31.884Z,0.00
2018-02-21T02:30:31.855Z,0.00
2018-02-21T02:31:31.833Z,0.00
2018-02-21T02:32:31.800Z,0.00
2018-02-21T02:33:31.768Z,0.00
2018-02-21T02:34:31.746Z,0.00
2018-02-21T02:35:31.714Z,0.00
2018-02-21T02:36:31.686Z,0.00
2018-02-21T02:37:31.658Z,0.00
2018-02-21T02:38:31.633Z,0.00
2018-02-21T02:41:06.190Z,0.00
2018-02-21T02:42:06.149Z,0.00
2018-02-21T02:43:59.537Z,0.00
2018-02-21T02:44:59.495Z,0.00
2018-02-21T02:46:52.811Z,0.00
2018-02-21T02:47:52.763Z,0.00
2018-02-21T02:49:46.112Z,0.00
2018-02-21T02:50:47.219Z,0.00
2018-02-21T02:52:39.419Z,0.00
2018-02-21T02:53:39.366Z,0.00
2018-02-21T02:55:32.712Z,0.00
2018-02-21T02:56:32.663Z,0.00
2018-02-21T02:58:26.054Z,0.00
2018-02-21T02:59:25.973Z,0.00
2018-02-21T03:01:19.315Z,0.00
2018-02-21T03:02:19.278Z,0.00
2018-02-21T03:04:13.483Z,0.00
2018-02-21T03:05:13.429Z,0.00
2018-02-21T03:07:09.297Z,0.00
2018-02-21T03:08:09.255Z,0.00
2018-02-21T03:10:02.622Z,0.00
2018-02-21T03:11:02.596Z,0.00
2018-02-21T03:12:58.453Z,0.00
2018-02-21T03:13:58.408Z,0.00
2018-02-21T03:15:51.749Z,0.00
2018-02-21T03:16:51.704Z,0.00
2018-02-21T03:18:47.590Z,0.00
2018-02-21T03:19:47.500Z,0.00
2018-02-21T03:21:40.843Z,0.00
2018-02-21T03:22:40.835Z,0.00
2018-02-21T03:24:34.148Z,0.00
2018-02-21T03:25:34.096Z,0.00
2018-02-21T03:27:27.481Z,0.00
2018-02-21T03:28:27.432Z,0.00
2018-02-21T03:30:20.789Z,0.00
2018-02-21T03:31:20.745Z,0.00
2018-02-21T03:33:14.089Z,0.00
2018-02-21T03:34:14.044Z,0.00
2018-02-21T03:36:09.921Z,0.00
2018-02-21T03:37:09.879Z,0.00
2018-02-21T03:39:03.225Z,0.00
2018-02-21T03:40:03.179Z,0.00
2018-02-21T03:41:56.540Z,0.00
2018-02-21T03:42:56.483Z,0.00
2018-02-21T03:44:49.823Z,0.00
2018-02-21T03:45:49.779Z,0.00
2018-02-21T03:47:43.125Z,0.00
2018-02-21T03:48:43.075Z,0.00
2018-02-21T03:50:36.418Z,0.00
2018-02-21T03:51:36.370Z,0.00
2018-02-21T03:53:29.723Z,0.00
2018-02-21T03:54:29.695Z,0.00
2018-02-21T03:56:23.027Z,0.00
2018-02-21T03:57:22.976Z,0.00
2018-02-21T03:59:16.325Z,0.00
2018-02-21T04:00:16.282Z,0.00
2018-02-21T04:02:09.660Z,0.00
2018-02-21T04:03:09.606Z,0.00
2018-02-21T04:05:02.948Z,0.00
2018-02-21T04:06:02.904Z,0.00
2018-02-21T04:07:56.263Z,0.00
2018-02-21T04:08:56.214Z,0.00
2018-02-21T04:10:52.071Z,0.00
2018-02-21T04:11:52.034Z,0.00
2018-02-21T04:13:45.374Z,0.00
2018-02-21T04:14:45.330Z,0.00
2018-02-21T04:16:41.182Z,0.00
2018-02-21T04:17:41.127Z,0.00
2018-02-21T04:19:34.776Z,0.00
2018-02-21T04:20:34.659Z,0.00
2018-02-21T04:22:28.024Z,0.00
2018-02-21T04:23:27.979Z,0.00
2018-02-21T04:25:21.367Z,0.00
2018-02-21T04:26:21.290Z,0.00
2018-02-21T04:28:14.675Z,0.00
2018-02-21T04:29:14.627Z,0.00
2018-02-21T04:31:10.481Z,0.00
2018-02-21T04:32:10.433Z,0.00
2018-02-21T04:34:06.311Z,0.00
2018-02-21T04:35:06.273Z,0.00
2018-02-21T04:36:59.623Z,0.00
2018-02-21T04:37:59.577Z,0.00
2018-02-21T04:39:52.923Z,0.00
2018-02-21T04:40:52.876Z,0.00
2018-02-21T04:42:46.447Z,0.00
2018-02-21T04:43:46.398Z,0.00
2018-02-21T04:45:39.747Z,0.00
2018-02-21T04:46:39.700Z,0.00
2018-02-21T04:48:33.877Z,0.00
2018-02-21T04:49:33.864Z,0.00
2018-02-21T04:51:27.258Z,0.00
2018-02-21T04:52:27.208Z,0.00
2018-02-21T04:54:23.050Z,0.00
2018-02-21T04:55:23.007Z,0.00
2018-02-21T04:57:16.363Z,0.00
2018-02-21T04:58:16.312Z,0.00
2018-02-21T05:00:09.673Z,0.00
2018-02-21T05:01:09.615Z,0.00
2018-02-21T05:03:03.968Z,0.00
2018-02-21T05:04:03.925Z,0.00
2018-02-21T05:05:57.311Z,0.00
2018-02-21T05:06:57.256Z,0.00
2018-02-21T05:08:50.830Z,0.00
2018-02-21T05:09:50.776Z,0.00
2018-02-21T05:11:46.624Z,0.00
2018-02-21T05:12:46.581Z,0.00
2018-02-21T05:14:39.963Z,0.00
2018-02-21T05:15:39.888Z,0.00
2018-02-21T05:17:33.237Z,0.00
2018-02-21T05:18:33.190Z,0.00
2018-02-21T05:20:29.057Z,0.00
2018-02-21T05:21:28.998Z,0.00
2018-02-21T05:23:22.377Z,0.00
2018-02-21T05:24:22.324Z,0.00
2018-02-21T05:26:15.687Z,0.00
2018-02-21T05:27:15.630Z,0.00
2018-02-21T05:29:11.483Z,0.00
2018-02-21T05:30:11.438Z,0.00
2018-02-21T05:32:05.609Z,0.00
2018-02-21T05:33:05.562Z,0.00
2018-02-21T05:34:58.923Z,0.00
2018-02-21T05:35:58.864Z,0.00
2018-02-21T05:37:52.217Z,0.00
2018-02-21T05:38:52.160Z,0.00
2018-02-21T05:40:45.511Z,0.00
2018-02-21T05:41:45.460Z,0.00
2018-02-21T05:43:38.840Z,0.00
2018-02-21T05:44:38.761Z,0.00
2018-02-21T05:46:32.107Z,0.00
2018-02-21T05:47:32.066Z,0.00
2018-02-21T05:49:26.275Z,0.00
2018-02-21T05:50:26.222Z,0.00
2018-02-21T05:52:19.573Z,0.00
2018-02-21T05:53:19.520Z,0.00
2018-02-21T05:55:12.867Z,0.00
2018-02-21T05:56:12.823Z,0.00
2018-02-21T05:58:06.177Z,0.00
2018-02-21T05:59:06.117Z,0.00
2018-02-21T06:00:59.465Z,0.00
2018-02-21T06:01:59.418Z,0.00
2018-02-21T06:03:52.765Z,0.00
2018-02-21T06:04:52.719Z,0.00
2018-02-21T06:06:48.558Z,0.00
2018-02-21T06:07:48.513Z,0.00
2018-02-21T06:09:44.367Z,0.00
2018-02-21T06:10:44.315Z,0.00
2018-02-21T06:12:37.654Z,0.00
2018-02-21T06:13:37.619Z,0.00
2018-02-21T06:15:33.472Z,0.00
2018-02-21T06:16:33.419Z,0.00
2018-02-21T06:18:29.330Z,0.00
2018-02-21T06:19:29.222Z,0.00
2018-02-21T06:21:22.573Z,0.00
2018-02-21T06:22:22.557Z,0.00
2018-02-21T06:24:18.381Z,0.00
2018-02-21T06:25:18.328Z,0.00
2018-02-21T06:27:11.684Z,0.00
2018-02-21T06:28:11.630Z,0.00
2018-02-21T06:30:04.975Z,0.00
2018-02-21T06:31:04.924Z,0.00
2018-02-21T06:32:58.294Z,0.00
2018-02-21T06:33:58.225Z,0.00
2018-02-21T06:35:51.614Z,0.00
2018-02-21T06:36:51.552Z,0.00
2018-02-21T06:38:44.905Z,5.63
2018-02-21T06:39:44.852Z,5.63
2018-02-21T06:41:40.733Z,5.63
2018-02-21T06:42:40.684Z,5.63
2018-02-21T06:44:34.083Z,5.63
2018-02-21T06:45:34.031Z,5.63
2018-02-21T06:47:27.368Z,5.63
2018-02-21T06:48:27.333Z,5.63
2018-02-21T06:50:20.692Z,5.63
2018-02-21T06:51:20.625Z,5.63
2018-02-21T06:53:13.984Z,11.25
2018-02-21T06:54:13.936Z,11.25
2018-02-21T06:56:09.830Z,11.25
2018-02-21T06:57:09.749Z,11.25
2018-02-21T06:59:03.124Z,11.25
2018-02-21T07:00:03.059Z,16.88
2018-02-21T07:01:56.417Z,16.88
2018-02-21T07:02:56.355Z,16.88
2018-02-21T07:04:49.702Z,16.88
2018-02-21T07:05:49.653Z,22.50
2018-02-21T07:07:45.506Z,22.50
2018-02-21T07:08:45.451Z,22.50
2018-02-21T07:10:38.811Z,22.50
2018-02-21T07:11:38.765Z,22.50
2018-02-21T07:13:32.116Z,28.13
2018-02-21T07:14:32.071Z,28.13
2018-02-21T07:16:25.421Z,28.13
2018-02-21T07:17:25.382Z,28.13
2018-02-21T07:19:21.231Z,33.75
2018-02-21T07:20:21.192Z,33.75
2018-02-21T07:22:14.561Z,33.75
2018-02-21T07:23:14.514Z,33.75
2018-02-21T07:25:07.859Z,33.75
2018-02-21T07:26:07.811Z,33.75
2018-02-21T07:28:01.176Z,39.38
2018-02-21T07:29:01.129Z,33.75
2018-02-21T07:30:54.498Z,39.38
2018-02-21T07:31:54.439Z,39.38
2018-02-21T07:33:47.800Z,39.38
2018-02-21T07:34:47.748Z,39.38
2018-02-21T07:36:41.099Z,39.38
2018-02-21T07:37:41.056Z,39.38
2018-02-21T07:39:34.407Z,39.38
2018-02-21T07:40:34.370Z,33.75
2018-02-21T07:42:27.719Z,39.38
2018-02-21T07:43:27.678Z,39.38
2018-02-21T07:45:23.577Z,39.38
2018-02-21T07:46:23.488Z,45.00
2018-02-21T07:48:16.834Z,50.63
2018-02-21T07:49:16.788Z,50.63
2018-02-21T07:51:10.141Z,50.63
2018-02-21T07:52:10.086Z,56.25
2018-02-21T07:54:03.434Z,61.88
2018-02-21T07:55:03.386Z,61.88
2018-02-21T07:56:56.733Z,67.50
2018-02-21T07:57:56.692Z,67.50
2018-02-21T07:59:50.036Z,67.50
2018-02-21T08:00:49.985Z,73.13
2018-02-21T08:02:43.343Z,73.13
2018-02-21T08:03:43.295Z,73.13
2018-02-21T08:05:36.663Z,78.75
2018-02-21T08:06:36.599Z,78.75
2018-02-21T08:08:29.941Z,78.75
2018-02-21T08:09:29.886Z,78.75
2018-02-21T08:11:23.229Z,84.38
2018-02-21T08:12:23.190Z,84.38
2018-02-21T08:14:19.034Z,84.38
2018-02-21T08:15:18.989Z,90.00
2018-02-21T08:17:12.342Z,84.38
2018-02-21T08:18:12.295Z,84.38
2018-02-21T08:20:05.658Z,90.00
2018-02-21T08:21:05.613Z,84.38
2018-02-21T08:22:05.591Z,73.13
2018-02-21T08:23:05.563Z,90.00
2018-02-21T08:24:05.532Z,95.63
2018-02-21T08:25:05.503Z,90.00
2018-02-21T08:26:05.480Z,84.38
2018-02-21T08:27:05.499Z,95.63
2018-02-21T08:28:05.419Z,95.63
2018-02-21T08:29:05.394Z,84.38
2018-02-21T08:30:05.367Z,95.63
2018-02-21T08:31:05.340Z,95.63
2018-02-21T08:32:05.315Z,95.63
2018-02-21T08:33:05.303Z,90.00
2018-02-21T08:34:05.256Z,90.00
2018-02-21T08:35:05.228Z,90.00
2018-02-21T08:36:05.209Z,78.75
2018-02-21T08:37:05.176Z,73.13
2018-02-21T08:38:05.149Z,67.50
2018-02-21T08:39:05.118Z,67.50
2018-02-21T08:40:05.092Z,67.50
2018-02-21T08:41:05.069Z,67.50
2018-02-21T08:42:05.044Z,67.50
2018-02-21T08:43:05.015Z,61.88
2018-02-21T08:44:04.986Z,56.25
2018-02-21T08:45:04.958Z,61.88
2018-02-21T08:46:04.930Z,56.25
2018-02-21T08:47:04.901Z,61.88
2018-02-21T08:48:04.878Z,61.88
2018-02-21T08:49:04.845Z,56.25
2018-02-21T08:50:04.825Z,50.63
2018-02-21T08:51:04.795Z,61.88
2018-02-21T08:52:04.771Z,61.88
2018-02-21T08:53:04.750Z,56.25
2018-02-21T08:54:04.707Z,61.88
2018-02-21T08:55:04.680Z,45.00
2018-02-21T08:56:04.678Z,39.38
2018-02-21T08:57:04.629Z,50.63
2018-02-21T08:58:04.598Z,39.38
2018-02-21T08:59:04.576Z,39.38
2018-02-21T09:00:04.586Z,39.38
2018-02-21T09:01:04.517Z,45.00
2018-02-21T09:02:04.492Z,33.75
2018-02-21T09:03:04.463Z,39.38
2018-02-21T09:04:04.438Z,33.75
2018-02-21T09:05:04.410Z,39.38
2018-02-21T09:06:04.378Z,56.25
2018-02-21T09:07:04.351Z,56.25
2018-02-21T09:08:04.326Z,67.50
2018-02-21T09:09:04.297Z,67.50
2018-02-21T09:10:04.270Z,61.88
2018-02-21T09:11:04.243Z,61.88
2018-02-21T09:12:04.213Z,90.00
2018-02-21T09:13:04.190Z,73.13
2018-02-21T09:14:04.183Z,67.50
2018-02-21T09:15:04.129Z,67.50
2018-02-21T09:16:04.101Z,73.13
2018-02-21T09:17:04.099Z,56.25
2018-02-21T09:18:04.052Z,67.50
2018-02-21T09:19:04.021Z,84.38
2018-02-21T09:20:04.016Z,73.13
2018-02-21T09:21:03.966Z,90.00
2018-02-21T09:22:03.943Z,101.25
2018-02-21T09:23:03.915Z,73.13
2018-02-21T09:24:03.886Z,84.38
2018-02-21T09:25:03.856Z,56.25
2018-02-21T09:26:03.838Z,61.88
2018-02-21T09:27:03.800Z,61.88
2018-02-21T09:28:03.775Z,78.75
2018-02-21T09:29:03.751Z,78.75
2018-02-21T09:30:03.715Z,73.13
2018-02-21T09:31:03.692Z,73.13
2018-02-21T09:32:03.692Z,78.75
2018-02-21T09:33:03.634Z,67.50
2018-02-21T09:34:03.606Z,73.13
2018-02-21T09:35:03.581Z,84.38
2018-02-21T09:36:03.556Z,67.50
2018-02-21T09:37:03.565Z,61.88
2018-02-21T09:38:03.500Z,73.13
2018-02-21T09:39:03.471Z,90.00
2018-02-21T09:40:03.442Z,56.25
2018-02-21T09:41:03.418Z,56.25
2018-02-21T09:42:03.390Z,67.50
2018-02-21T09:43:03.361Z,78.75
2018-02-21T09:44:03.339Z,78.75
2018-02-21T09:45:03.309Z,56.25
2018-02-21T09:46:03.286Z,73.13
2018-02-21T09:47:03.253Z,90.00
2018-02-21T09:48:03.222Z,135.00
2018-02-21T09:49:03.203Z,73.13
2018-02-21T09:50:03.175Z,78.75
2018-02-21T09:51:03.142Z,84.38
2018-02-21T09:52:03.114Z,73.13
2018-02-21T09:53:03.086Z,78.75
2018-02-21T09:54:03.057Z,73.13
2018-02-21T09:55:03.031Z,101.25
2018-02-21T09:56:03.008Z,95.63
2018-02-21T09:57:02.977Z,61.88
2018-02-21T09:58:02.948Z,123.75
2018-02-21T09:59:02.920Z,123.75
2018-02-21T10:00:02.895Z,90.00
2018-02-21T10:01:02.864Z,90.00
2018-02-21T10:02:02.839Z,135.00
2018-02-21T10:03:02.810Z,78.75
2018-02-21T10:04:02.789Z,67.50
2018-02-21T10:05:02.762Z,67.50
2018-02-21T10:06:02.773Z,73.13
2018-02-21T10:07:02.743Z,78.75
2018-02-21T10:08:02.675Z,61.88
2018-02-21T10:09:02.649Z,73.13
2018-02-21T10:10:02.620Z,84.38
2018-02-21T10:11:02.598Z,95.63
2018-02-21T10:12:02.574Z,101.25
2018-02-21T10:13:02.538Z,84.38
2018-02-21T10:14:02.517Z,67.50
2018-02-21T10:15:02.484Z,56.25
2018-02-21T10:16:02.458Z,67.50
2018-02-21T10:17:02.434Z,84.38
2018-02-21T10:18:02.406Z,78.75
2018-02-21T10:19:02.374Z,56.25
2018-02-21T10:20:02.351Z,67.50
2018-02-21T10:21:02.323Z,95.63
2018-02-21T10:22:02.295Z,106.88
2018-02-21T10:23:02.274Z,78.75
2018-02-21T10:24:02.242Z,101.25
2018-02-21T10:25:02.212Z,95.63
2018-02-21T10:26:02.185Z,106.88
2018-02-21T10:27:02.158Z,157.50
2018-02-21T10:28:02.133Z,129.38
2018-02-21T10:29:02.106Z,101.25
2018-02-21T10:30:02.077Z,106.88
2018-02-21T10:31:02.048Z,163.13
2018-02-21T10:32:02.022Z,140.63
2018-02-21T10:33:01.997Z,174.38
2018-02-21T10:34:01.970Z,180.00
2018-02-21T10:35:01.942Z,185.63
2018-02-21T10:36:01.915Z,185.63
2018-02-21T10:37:01.886Z,191.25
2018-02-21T10:38:01.866Z,185.63
2018-02-21T10:39:01.866Z,163.13
2018-02-21T10:40:01.808Z,180.00
2018-02-21T10:41:01.783Z,185.63
2018-02-21T10:42:01.753Z,191.25
2018-02-21T10:43:01.728Z,180.00
2018-02-21T10:44:01.702Z,174.38
2018-02-21T10:45:01.673Z,196.88
2018-02-21T10:46:01.650Z,174.38
2018-02-21T10:47:01.623Z,168.75
2018-02-21T10:48:01.596Z,174.38
2018-02-21T10:49:01.572Z,174.38
2018-02-21T10:50:01.544Z,174.38
2018-02-21T10:51:01.519Z,180.00
2018-02-21T10:52:01.497Z,191.25
2018-02-21T10:53:01.462Z,185.63
2018-02-21T10:54:01.436Z,180.00
2018-02-21T10:55:01.415Z,180.00
2018-02-21T10:56:01.389Z,168.75
2018-02-21T10:57:01.362Z,146.25
2018-02-21T10:58:01.333Z,151.88
2018-02-21T10:59:01.306Z,123.75
2018-02-21T11:00:01.284Z,146.25
2018-02-21T11:01:01.261Z,146.25
2018-02-21T11:02:01.238Z,151.88
2018-02-21T11:03:01.212Z,140.63
2018-02-21T11:04:01.182Z,135.00
2018-02-21T11:05:01.159Z,140.63
2018-02-21T11:06:01.133Z,129.38
2018-02-21T11:07:01.102Z,129.38
2018-02-21T11:08:01.079Z,118.13
2018-02-21T11:09:01.049Z,118.13
2018-02-21T11:10:01.025Z,123.75
2018-02-21T11:11:00.999Z,123.75
2018-02-21T11:12:00.975Z,140.63
2018-02-21T11:13:00.950Z,140.63
2018-02-21T11:14:00.977Z,140.63
2018-02-21T11:15:00.904Z,123.75
2018-02-21T11:16:00.878Z,118.13
2018-02-21T11:17:00.850Z,118.13
2018-02-21T11:18:00.851Z,123.75
2018-02-21T11:19:00.799Z,129.38
2018-02-21T11:20:00.782Z,140.63
2018-02-21T11:21:00.750Z,146.25
2018-02-21T11:22:00.717Z,135.00
2018-02-21T11:23:00.699Z,135.00
2018-02-21T11:24:00.669Z,129.38
2018-02-21T11:25:00.652Z,135.00
2018-02-21T11:26:00.616Z,140.63
2018-02-21T11:27:00.590Z,135.00
2018-02-21T11:28:00.570Z,146.25
2018-02-21T11:29:00.542Z,140.63
2018-02-21T11:30:00.517Z,140.63
2018-02-21T11:31:00.490Z,140.63
2018-02-21T11:32:00.471Z,140.63
2018-02-21T11:33:00.447Z,135.00
2018-02-21T11:34:00.418Z,140.63
2018-02-21T11:35:00.398Z,135.00
2018-02-21T11:36:00.363Z,129.38
2018-02-21T11:37:00.337Z,78.75
2018-02-21T11:38:00.311Z,123.75
2018-02-21T11:39:00.286Z,123.75
2018-02-21T11:40:00.268Z,118.13
2018-02-21T11:41:00.239Z,135.00
2018-02-21T11:42:00.211Z,123.75
2018-02-21T11:43:00.183Z,135.00
2018-02-21T11:44:00.159Z,135.00
2018-02-21T11:45:00.133Z,140.63
2018-02-21T11:46:00.105Z,135.00
2018-02-21T11:47:00.078Z,140.63
2018-02-21T11:48:00.068Z,140.63
2018-02-21T11:49:00.028Z,135.00
2018-02-21T11:50:00.003Z,135.00
2018-02-21T11:51:00.005Z,129.38
2018-02-21T11:51:59.953Z,129.38
2018-02-21T11:52:59.926Z,129.38
2018-02-21T11:53:59.905Z,135.00
2018-02-21T11:54:59.876Z,135.00
2018-02-21T11:55:59.872Z,140.63
2018-02-21T11:56:59.839Z,140.63
2018-02-21T11:57:59.802Z,95.63
2018-02-21T11:58:59.796Z,106.88
2018-02-21T11:59:59.748Z,135.00
2018-02-21T12:00:59.722Z,135.00
2018-02-21T12:01:59.721Z,135.00
2018-02-21T12:02:59.702Z,101.25
2018-02-21T12:03:59.643Z,101.25
2018-02-21T12:04:59.626Z,157.50
2018-02-21T12:05:59.594Z,146.25
2018-02-21T12:06:59.568Z,151.88
2018-02-21T12:07:59.549Z,163.13
2018-02-21T12:08:59.524Z,151.88
2018-02-21T12:09:59.521Z,106.88
2018-02-21T12:10:59.473Z,129.38
2018-02-21T12:11:59.445Z,151.88
2018-02-21T12:12:59.413Z,168.75
2018-02-21T12:13:59.397Z,168.75
2018-02-21T12:14:59.366Z,163.13
2018-02-21T12:15:59.341Z,163.13
2018-02-21T12:16:59.317Z,151.88
2018-02-21T12:17:59.309Z,157.50
2018-02-21T12:18:59.268Z,163.13
2018-02-21T12:20:00.221Z,151.88
2018-02-21T12:20:59.214Z,123.75
2018-02-21T12:21:59.186Z,123.75
2018-02-21T12:22:59.176Z,90.00
2018-02-21T12:23:59.145Z,140.63
2018-02-21T12:24:59.110Z,140.63
2018-02-21T12:25:59.098Z,135.00
2018-02-21T12:26:59.060Z,129.38
2018-02-21T12:27:59.036Z,129.38
2018-02-21T12:28:59.012Z,140.63
2018-02-21T12:29:58.987Z,135.00
2018-02-21T12:30:58.960Z,129.38
2018-02-21T12:31:58.934Z,129.38
2018-02-21T12:32:58.911Z,135.00
2018-02-21T12:33:58.885Z,123.75
2018-02-21T12:34:58.915Z,118.13
2018-02-21T12:35:58.832Z,90.00
2018-02-21T12:36:58.822Z,84.38
2018-02-21T12:37:58.791Z,118.13
2018-02-21T12:38:58.767Z,112.50
2018-02-21T12:39:58.743Z,84.38
2018-02-21T12:40:58.713Z,84.38
2018-02-21T12:41:58.709Z,106.88
2018-02-21T12:42:58.660Z,101.25
2018-02-21T12:43:58.633Z,67.50
2018-02-21T12:44:58.608Z,56.25
2018-02-21T12:45:58.584Z,61.88
2018-02-21T12:46:58.564Z,95.63
2018-02-21T12:47:58.532Z,84.38
2018-02-21T12:48:58.511Z,78.75
2018-02-21T12:49:58.483Z,67.50
2018-02-21T12:50:58.456Z,90.00
2018-02-21T12:51:58.435Z,78.75
2018-02-21T12:52:58.405Z,56.25
2018-02-21T12:53:58.383Z,61.88
2018-02-21T12:54:58.360Z,61.88
2018-02-21T12:55:58.337Z,56.25
2018-02-21T12:56:58.308Z,61.88
2018-02-21T12:57:58.295Z,73.13
2018-02-21T12:58:58.263Z,61.88
2018-02-21T12:59:58.275Z,67.50
2018-02-21T13:00:58.206Z,73.13
2018-02-21T13:01:58.183Z,118.13
2018-02-21T13:02:58.157Z,106.88
2018-02-21T13:03:58.129Z,78.75
2018-02-21T13:04:58.105Z,101.25
2018-02-21T13:05:58.122Z,101.25
2018-02-21T13:06:58.052Z,106.88
2018-02-21T13:07:58.027Z,118.13
2018-02-21T13:08:58.000Z,118.13
2018-02-21T13:09:57.975Z,112.50
2018-02-21T13:10:57.953Z,73.13
2018-02-21T13:11:57.972Z,73.13
2018-02-21T13:12:57.902Z,84.38
2018-02-21T13:13:57.930Z,112.50
2018-02-21T13:14:57.871Z,112.50
2018-02-21T13:15:57.828Z,106.88
2018-02-21T13:16:57.810Z,78.75
2018-02-21T13:17:57.779Z,50.63
2018-02-21T13:18:57.748Z,50.63
2018-02-21T13:19:57.723Z,61.88
2018-02-21T13:20:57.702Z,78.75
2018-02-21T13:21:57.673Z,106.88
2018-02-21T13:22:57.650Z,95.63
2018-02-21T13:23:57.630Z,67.50
2018-02-21T13:24:57.607Z,101.25
2018-02-21T13:25:57.571Z,112.50
2018-02-21T13:26:57.546Z,106.88
2018-02-21T13:27:57.522Z,106.88
2018-02-21T13:28:57.496Z,84.38
2018-02-21T13:29:57.477Z,90.00
2018-02-21T13:30:57.453Z,95.63
2018-02-21T13:31:57.434Z,84.38
2018-02-21T13:32:57.422Z,73.13
2018-02-21T13:33:57.376Z,84.38
2018-02-21T13:34:57.341Z,95.63
2018-02-21T13:35:57.373Z,101.25
2018-02-21T13:36:57.298Z,90.00
2018-02-21T13:37:57.270Z,50.63
2018-02-21T13:38:57.249Z,56.25
2018-02-21T13:39:57.219Z,50.63
2018-02-21T13:40:57.203Z,50.63
2018-02-21T13:41:57.164Z,50.63
2018-02-21T13:42:57.144Z,67.50
2018-02-21T13:43:57.125Z,73.13
2018-02-21T13:44:57.096Z,78.75
2018-02-21T13:45:57.075Z,67.50
2018-02-21T13:46:57.058Z,39.38
2018-02-21T13:47:57.021Z,45.00
2018-02-21T13:48:56.989Z,50.63
2018-02-21T13:49:56.967Z,84.38
2018-02-21T13:50:56.944Z,78.75
2018-02-21T13:51:56.927Z,73.13
2018-02-21T13:52:56.902Z,73.13
2018-02-21T13:53:56.860Z,78.75
2018-02-21T13:54:56.838Z,67.50
2018-02-21T13:55:56.816Z,56.25
2018-02-21T13:56:56.789Z,56.25
2018-02-21T13:57:56.763Z,56.25
2018-02-21T13:58:56.740Z,61.88
2018-02-21T13:59:56.712Z,56.25
2018-02-21T14:00:56.739Z,61.88
2018-02-21T14:01:56.660Z,61.88
2018-02-21T14:02:56.641Z,61.88
2018-02-21T14:03:56.620Z,61.88
2018-02-21T14:04:56.590Z,61.88
2018-02-21T14:05:56.573Z,61.88
2018-02-21T14:06:56.536Z,61.88
2018-02-21T14:07:56.515Z,61.88
2018-02-21T14:08:56.493Z,56.25
2018-02-21T14:09:56.458Z,56.25
2018-02-21T14:10:56.474Z,61.88
2018-02-21T14:11:56.411Z,61.88
2018-02-21T14:12:56.381Z,61.88
2018-02-21T14:13:56.359Z,61.88
2018-02-21T14:14:56.333Z,67.50
2018-02-21T14:15:56.306Z,67.50
2018-02-21T14:16:56.284Z,56.25
2018-02-21T14:17:56.259Z,56.25
2018-02-21T14:18:56.229Z,61.88
2018-02-21T14:19:56.204Z,28.13
2018-02-21T14:20:56.179Z,28.13
2018-02-21T14:21:56.152Z,22.50
2018-02-21T14:22:56.131Z,56.25
2018-02-21T14:23:56.115Z,45.00
2018-02-21T14:24:56.152Z,33.75
2018-02-21T14:25:56.095Z,45.00
2018-02-21T14:26:56.030Z,56.25
2018-02-21T14:27:56.021Z,56.25
2018-02-21T14:28:55.982Z,56.25
2018-02-21T14:29:55.953Z,56.25
2018-02-21T14:30:55.959Z,50.63
2018-02-21T14:31:55.901Z,50.63
2018-02-21T14:32:55.878Z,45.00
2018-02-21T14:33:55.855Z,56.25
2018-02-21T14:34:55.825Z,56.25
2018-02-21T14:35:55.798Z,50.63
2018-02-21T14:36:55.770Z,50.63
2018-02-21T14:37:55.742Z,50.63
2018-02-21T14:38:55.721Z,45.00
2018-02-21T14:39:55.695Z,56.25
2018-02-21T14:40:55.668Z,39.38
2018-02-21T14:41:55.642Z,33.75
2018-02-21T14:42:55.615Z,50.63
2018-02-21T14:43:55.595Z,28.13
2018-02-21T14:44:55.563Z,28.13